Flood From: 24-01-2018 06:00 Until: 25-01-2018 06:00 warning for: Flood Level: Yellow info button

Although rather usual in this region, locally or potentially dangerous phenomena are expected. (such as local winds, summer thunderstorms, rising streams or high waves) Be aware and pay attention to the latest weather updates, especially if you carry out activities exposed to weather or close to a stream or shoreline. 


Meteo18 Weather Cam more information Meteo18 Weather Cam


Thunder radar more information blitzortung!


Rain radar more information rain snow radar


Visit our other weather sites:

Template documentation
and downloads

And another site



Weather Underground History page Text

Daily Summary for March 19, 2017 Units:  English    Metric   Both
« Previous Day
Next Day »
Daily Weekly Monthly Yearly Custom
  High: Low: Average:
Temperature: 54.1 °F 48.7 °F 50.9 °F
Dew Point: 49.3 °F 46.4 °F 47.8 °F
Humidity: 92 % 81 % 89 %
Wind Speed: 18 mph 0 mph 6.3 mph
Wind Gust: 23 mph - -
Wind:- - WSW
Pressure: 30.2 in 30.1 in -
Precipitation: 0 in    
Historical Graphs
 
 
Tabular Data for March 19, 2017
Time Temperature Dew Point Pressure Wind Wind Speed Wind Gust Humidity Rainfall Rate (Hourly)
00:02 49.8 °F 46.9 °F 30.2 in WSW 7 mph 15 mph 90 % 0 in
00:07 49.8 °F 46.9 °F 30.2 in WSW 6 mph 12 mph 90 % 0 in
00:12 49.8 °F 46.9 °F 30.2 in West 5 mph 11 mph 90 % 0 in
00:17 49.8 °F 46.9 °F 30.2 in West 4 mph 11 mph 90 % 0 in
00:22 49.8 °F 47.3 °F 30.2 in SW 7 mph 13 mph 91 % 0 in
00:27 49.8 °F 47.3 °F 30.2 in SW 5 mph 13 mph 91 % 0 in
00:32 49.8 °F 47.3 °F 30.2 in SW 5 mph 13 mph 91 % 0 in
00:37 49.8 °F 47.3 °F 30.2 in SSW 4 mph 13 mph 91 % 0 in
00:42 49.8 °F 47.3 °F 30.2 in WSW 8 mph 12 mph 91 % 0 in
00:47 49.6 °F 47.1 °F 30.2 in WSW 6 mph 11 mph 91 % 0 in
00:52 49.6 °F 47.1 °F 30.2 in WSW 7 mph 11 mph 91 % 0 in
01:02 49.6 °F 47.1 °F 30.2 in WSW 9 mph 13 mph 91 % 0 in
01:07 49.6 °F 47.1 °F 30.2 in WSW 5 mph 15 mph 91 % 0 in
01:12 49.6 °F 47.1 °F 30.2 in SW 6 mph 15 mph 91 % 0 in
01:17 49.6 °F 47.1 °F 30.2 in SW 9 mph 15 mph 91 % 0 in
01:22 49.6 °F 47.1 °F 30.2 in WSW 6 mph 15 mph 91 % 0 in
01:32 49.6 °F 47.1 °F 30.2 in SW 9 mph 17 mph 91 % 0 in
01:37 49.6 °F 47.1 °F 30.2 in WSW 9 mph 17 mph 91 % 0 in
01:42 49.6 °F 47.1 °F 30.2 in WSW 11 mph 17 mph 91 % 0 in
01:47 49.6 °F 47.1 °F 30.2 in SW 11 mph 16 mph 91 % 0 in
01:52 49.5 °F 46.9 °F 30.2 in SW 8 mph 16 mph 91 % 0 in
01:57 49.5 °F 46.9 °F 30.2 in WSW 9 mph 14 mph 91 % 0 in
02:02 49.5 °F 46.9 °F 30.2 in West 9 mph 14 mph 91 % 0 in
02:07 49.5 °F 46.9 °F 30.2 in West 7 mph 14 mph 91 % 0 in
02:12 49.5 °F 46.9 °F 30.1 in West 7 mph 15 mph 91 % 0 in
02:17 49.5 °F 46.9 °F 30.1 in SW 6 mph 16 mph 91 % 0 in
02:22 49.5 °F 46.9 °F 30.1 in West 8 mph 16 mph 91 % 0 in
02:32 49.5 °F 46.9 °F 30.1 in WSW 10 mph 15 mph 91 % 0 in
02:37 49.3 °F 46.8 °F 30.1 in West 11 mph 12 mph 91 % 0 in
02:42 49.3 °F 46.8 °F 30.1 in WSW 8 mph 12 mph 91 % 0 in
02:47 49.3 °F 46.8 °F 30.1 in SW 7 mph 11 mph 91 % 0 in
02:52 49.3 °F 46.8 °F 30.1 in West 3 mph 11 mph 91 % 0 in
02:57 49.3 °F 46.8 °F 30.1 in WSW 4 mph 11 mph 91 % 0 in
03:02 49.3 °F 46.8 °F 30.1 in SW 5 mph 11 mph 91 % 0 in
03:12 49.3 °F 46.8 °F 30.1 in SSE 5 mph 12 mph 91 % 0 in
03:17 49.3 °F 46.8 °F 30.1 in WSW 8 mph 13 mph 91 % 0 in
03:22 49.3 °F 46.8 °F 30.1 in WSW 9 mph 13 mph 91 % 0 in
03:27 49.3 °F 46.8 °F 30.1 in West 11 mph 13 mph 91 % 0 in
03:32 49.1 °F 46.6 °F 30.1 in WSW 14 mph 14 mph 91 % 0 in
03:37 49.1 °F 46.6 °F 30.1 in SW 7 mph 17 mph 91 % 0 in
03:42 48.9 °F 46.4 °F 30.1 in West 8 mph 17 mph 91 % 0 in
03:47 48.9 °F 46.8 °F 30.1 in SW 6 mph 16 mph 92 % 0 in
03:52 48.9 °F 46.8 °F 30.1 in West 7 mph 16 mph 92 % 0 in
03:57 48.7 °F 46.6 °F 30.1 in WSW 7 mph 14 mph 92 % 0 in
04:02 48.7 °F 46.6 °F 30.1 in SW 4 mph 14 mph 92 % 0 in
04:07 48.7 °F 46.6 °F 30.1 in SW 6 mph 15 mph 92 % 0 in
04:12 48.7 °F 46.6 °F 30.1 in WSW 5 mph 15 mph 92 % 0 in
04:17 48.7 °F 46.6 °F 30.1 in West 6 mph 14 mph 92 % 0 in
04:22 48.7 °F 46.6 °F 30.1 in West 3 mph 14 mph 92 % 0 in
04:27 48.7 °F 46.6 °F 30.1 in SW 4 mph 11 mph 92 % 0 in
04:32 48.7 °F 46.6 °F 30.1 in West 5 mph 11 mph 92 % 0 in
04:37 48.7 °F 46.6 °F 30.1 in SW 3 mph 13 mph 92 % 0 in
04:42 48.7 °F 46.6 °F 30.1 in WSW 4 mph 13 mph 92 % 0 in
04:47 48.7 °F 46.6 °F 30.1 in SSW 4 mph 11 mph 92 % 0 in
04:52 48.7 °F 46.6 °F 30.1 in WSW 7 mph 11 mph 92 % 0 in
04:57 48.7 °F 46.6 °F 30.1 in WSW 7 mph 11 mph 92 % 0 in
05:02 48.7 °F 46.6 °F 30.1 in SW 8 mph 11 mph 92 % 0 in
05:12 48.7 °F 46.6 °F 30.1 in SW 8 mph 13 mph 92 % 0 in
05:17 48.7 °F 46.6 °F 30.1 in WSW 10 mph 14 mph 92 % 0 in
05:22 48.7 °F 46.6 °F 30.1 in West 8 mph 14 mph 92 % 0 in
05:27 48.7 °F 46.6 °F 30.1 in WSW 8 mph 13 mph 92 % 0 in
05:32 48.7 °F 46.6 °F 30.1 in SW 6 mph 13 mph 92 % 0 in
05:42 48.7 °F 46.6 °F 30.1 in WSW 1 mph 12 mph 92 % 0 in
05:47 48.7 °F 46.6 °F 30.1 in SW 2 mph 10 mph 92 % 0 in
05:52 48.7 °F 46.6 °F 30.1 in WSW 3 mph 10 mph 92 % 0 in
06:02 48.9 °F 46.8 °F 30.1 in WSW 9 mph 10 mph 92 % 0 in
06:07 48.9 °F 46.8 °F 30.1 in SSW 4 mph 13 mph 92 % 0 in
06:12 48.9 °F 46.8 °F 30.1 in SW 10 mph 13 mph 92 % 0 in
06:17 48.9 °F 46.8 °F 30.1 in West 7 mph 15 mph 92 % 0 in
06:22 48.9 °F 46.8 °F 30.1 in SSW 3 mph 15 mph 92 % 0 in
06:27 48.9 °F 46.8 °F 30.1 in SW 6 mph 15 mph 92 % 0 in
06:32 48.9 °F 46.8 °F 30.1 in WSW 11 mph 15 mph 92 % 0 in
06:37 48.9 °F 46.8 °F 30.1 in WSW 8 mph 11 mph 92 % 0 in
06:42 48.9 °F 46.8 °F 30.1 in SW 3 mph 11 mph 92 % 0 in
06:47 48.9 °F 46.8 °F 30.1 in South 5 mph 11 mph 92 % 0 in
06:52 48.9 °F 46.8 °F 30.1 in South 5 mph 11 mph 92 % 0 in
06:57 48.9 °F 46.8 °F 30.1 in SW 5 mph 14 mph 92 % 0 in
07:02 48.9 °F 46.8 °F 30.1 in SSW 3 mph 14 mph 92 % 0 in
07:07 48.9 °F 46.8 °F 30.1 in SW 7 mph 12 mph 92 % 0 in
07:12 49.1 °F 46.9 °F 30.1 in SW 10 mph 12 mph 92 % 0 in
07:17 49.1 °F 46.9 °F 30.1 in WSW 7 mph 15 mph 92 % 0 in
07:22 49.1 °F 46.9 °F 30.1 in SW 6 mph 15 mph 92 % 0 in
07:32 49.1 °F 46.9 °F 30.1 in SSW 4 mph 11 mph 92 % 0 in
07:42 49.1 °F 46.9 °F 30.1 in Calm   9 mph 92 % 0 in
07:52 49.3 °F 47.1 °F 30.1 in WSW 6 mph 9 mph 92 % 0 in
08:02 49.3 °F 47.1 °F 30.1 in WSW 3 mph 10 mph 92 % 0 in
08:12 49.3 °F 47.1 °F 30.1 in SW 1 mph 10 mph 92 % 0 in
08:17 49.3 °F 47.1 °F 30.1 in SSW 4 mph 8 mph 92 % 0 in
08:22 49.5 °F 47.3 °F 30.1 in Calm   8 mph 92 % 0 in
08:32 49.5 °F 47.3 °F 30.1 in SW 2 mph 9 mph 92 % 0 in
08:42 49.6 °F 47.5 °F 30.1 in SW 4 mph 9 mph 92 % 0 in
08:47 49.6 °F 47.5 °F 30.1 in WSW 10 mph 10 mph 92 % 0 in
08:52 49.6 °F 47.5 °F 30.1 in WSW 7 mph 9 mph 92 % 0 in
08:57 49.6 °F 47.5 °F 30.1 in WSW 9 mph 13 mph 92 % 0 in
09:02 49.6 °F 47.5 °F 30.1 in West 8 mph 13 mph 92 % 0 in
09:12 49.8 °F 47.7 °F 30.1 in SW 4 mph 12 mph 92 % 0 in
09:17 49.8 °F 47.7 °F 30.1 in WSW 10 mph 12 mph 92 % 0 in
09:22 49.8 °F 47.7 °F 30.1 in WSW 5 mph 12 mph 92 % 0 in
09:32 50 °F 47.8 °F 30.1 in SW 2 mph 13 mph 92 % 0 in
09:42 50.4 °F 48.2 °F 30.1 in SW 5 mph 12 mph 92 % 0 in
09:52 50.5 °F 48.4 °F 30.1 in WSW 7 mph 13 mph 92 % 0 in
10:02 50.5 °F 48 °F 30.1 in West 8 mph 15 mph 91 % 0 in
10:12 50.5 °F 48 °F 30.1 in West 8 mph 16 mph 91 % 0 in
10:22 50.7 °F 48.2 °F 30.1 in West 8 mph 12 mph 91 % 0 in
10:32 50.9 °F 48 °F 30.1 in West 9 mph 15 mph 90 % 0 in
10:42 51.3 °F 48.4 °F 30.1 in West 10 mph 15 mph 90 % 0 in
10:47 51.3 °F 48.2 °F 30.1 in West 11 mph 17 mph 89 % 0 in
10:52 51.3 °F 48.2 °F 30.1 in SW 13 mph 17 mph 89 % 0 in
10:57 51.4 °F 48.4 °F 30.1 in West 10 mph 19 mph 89 % 0 in
11:02 51.4 °F 48.4 °F 30.1 in WSW 6 mph 19 mph 89 % 0 in
11:12 51.6 °F 48.6 °F 30.1 in SW 6 mph 18 mph 89 % 0 in
11:17 51.6 °F 48.2 °F 30.1 in WSW 7 mph 17 mph 88 % 0 in
11:22 52.5 °F 49.1 °F 30.1 in West 18 mph 18 mph 88 % 0 in
11:32 53.2 °F 48.9 °F 30.1 in WSW 13 mph 18 mph 85 % 0 in
11:37 52.9 °F 48.6 °F 30.1 in West 13 mph 21 mph 85 % 0 in
11:42 52.9 °F 48.7 °F 30.1 in West 9 mph 21 mph 86 % 0 in
11:47 53.2 °F 48.9 °F 30.1 in WSW 12 mph 23 mph 85 % 0 in
11:52 53.4 °F 49.1 °F 30.1 in SSW 11 mph 23 mph 85 % 0 in
11:57 53.2 °F 48.6 °F 30.1 in WSW 15 mph 20 mph 84 % 0 in
12:02 53.1 °F 48.4 °F 30.1 in WSW 7 mph 20 mph 84 % 0 in
12:07 53.2 °F 48.6 °F 30.1 in SW 12 mph 21 mph 84 % 0 in
12:12 53.6 °F 48.6 °F 30.1 in WSW 12 mph 21 mph 83 % 0 in
12:17 53.8 °F 48.4 °F 30.1 in SW 8 mph 21 mph 82 % 0 in
12:22 54 °F 49.3 °F 30.1 in SW 9 mph 21 mph 84 % 0 in
12:27 54 °F 48.2 °F 30.1 in WSW 12 mph 21 mph 81 % 0 in
12:32 53.4 °F 48 °F 30.1 in SW 11 mph 21 mph 82 % 0 in
12:37 53.8 °F 48.4 °F 30.1 in SW 9 mph 21 mph 82 % 0 in
12:42 54 °F 48.6 °F 30.1 in WSW 7 mph 22 mph 82 % 0 in
12:47 54 °F 48.2 °F 30.1 in WSW 11 mph 21 mph 81 % 0 in
12:52 54.1 °F 48.4 °F 30.1 in WNW 11 mph 21 mph 81 % 0 in
12:57 54.1 °F 48.4 °F 30.1 in West 7 mph 20 mph 81 % 0 in
13:02 54.1 °F 48.4 °F 30.1 in SSW 10 mph 20 mph 81 % 0 in
13:07 54 °F 48.6 °F 30.1 in WSW 8 mph 19 mph 82 % 0 in
13:12 53.8 °F 48 °F 30.1 in West 7 mph 19 mph 81 % 0 in
13:17 53.8 °F 48.4 °F 30.1 in SW 14 mph 21 mph 82 % 0 in
13:22 53.8 °F 48.4 °F 30.1 in WSW 7 mph 21 mph 82 % 0 in
13:27 53.8 °F 48.4 °F 30.1 in WNW 8 mph 17 mph 82 % 0 in
13:32 53.4 °F 48.4 °F 30.1 in SW 7 mph 17 mph 83 % 0 in
13:42 53.2 °F 48.2 °F 30.1 in WSW 7 mph 16 mph 83 % 0 in
13:47 53.2 °F 48.6 °F 30.1 in WSW 4 mph 15 mph 84 % 0 in
13:57 53.4 °F 48.4 °F 30.1 in WSW 13 mph 13 mph 83 % 0 in
14:02 53.4 °F 48.4 °F 30.1 in West 5 mph 13 mph 83 % 0 in
14:07 53.2 °F 48.6 °F 30.1 in WSW 7 mph 16 mph 84 % 0 in
14:12 53.2 °F 48.6 °F 30.1 in WSW 4 mph 16 mph 84 % 0 in
14:22 53.2 °F 48.9 °F 30.1 in WSW 7 mph 14 mph 85 % 0 in
14:32 53.2 °F 48.9 °F 30.1 in WSW 9 mph 14 mph 85 % 0 in
14:42 53.2 °F 48.9 °F 30.1 in SW 4 mph 15 mph 85 % 0 in
14:47 53.1 °F 48.9 °F 30.1 in WNW 7 mph 13 mph 86 % 0 in
14:52 52.9 °F 48.7 °F 30.1 in WSW 10 mph 13 mph 86 % 0 in
14:57 52.7 °F 48.6 °F 30.1 in SW 9 mph 14 mph 86 % 0 in
15:02 52.9 °F 48.7 °F 30.1 in SSW 5 mph 14 mph 86 % 0 in
15:12 53.1 °F 48.7 °F 30.1 in WSW 5 mph 15 mph 85 % 0 in
15:17 53.1 °F 48.7 °F 30.1 in WSW 10 mph 15 mph 85 % 0 in
15:22 53.2 °F 48.6 °F 30.1 in West 7 mph 15 mph 84 % 0 in
15:27 53.2 °F 48.6 °F 30.1 in West 7 mph 15 mph 84 % 0 in
15:32 53.2 °F 48.6 °F 30.1 in West 6 mph 15 mph 84 % 0 in
15:37 53.1 °F 48.4 °F 30.1 in WSW 6 mph 15 mph 84 % 0 in
15:42 52.9 °F 48.7 °F 30.1 in West 10 mph 15 mph 86 % 0 in
15:47 52.5 °F 48.7 °F 30.1 in WSW 11 mph 15 mph 87 % 0 in
15:52 52.3 °F 48.9 °F 30.1 in WSW 6 mph 15 mph 88 % 0 in
15:57 52.3 °F 48.9 °F 30.1 in West 12 mph 15 mph 88 % 0 in
16:02 52.5 °F 48.7 °F 30.1 in West 9 mph 15 mph 87 % 0 in
16:07 52.5 °F 48.7 °F 30.1 in WNW 8 mph 15 mph 87 % 0 in
16:17 52.9 °F 48.7 °F 30.1 in WSW 4 mph 12 mph 86 % 0 in
16:22 52.9 °F 49.1 °F 30.1 in SW 3 mph 12 mph 87 % 0 in
16:32 52.5 °F 48.7 °F 30.1 in SW 9 mph 14 mph 87 % 0 in
16:37 52.3 °F 48.9 °F 30.1 in WNW 8 mph 15 mph 88 % 0 in
16:42 52 °F 48.6 °F 30.1 in WSW 6 mph 15 mph 88 % 0 in
16:47 52 °F 48.9 °F 30.1 in WSW 8 mph 15 mph 89 % 0 in
16:52 51.8 °F 48.7 °F 30.1 in WSW 11 mph 15 mph 89 % 0 in
16:57 52 °F 48.9 °F 30.1 in WSW 6 mph 14 mph 89 % 0 in
17:02 52.2 °F 49.1 °F 30.1 in SW 4 mph 14 mph 89 % 0 in
17:07 52.3 °F 48.9 °F 30.1 in West 6 mph 14 mph 88 % 0 in
17:12 52.2 °F 48.7 °F 30.1 in West 9 mph 14 mph 88 % 0 in
17:17 52 °F 48.6 °F 30.1 in SSW 5 mph 15 mph 88 % 0 in
17:22 52 °F 48.6 °F 30.1 in WSW 7 mph 15 mph 88 % 0 in
17:27 52 °F 48.6 °F 30.1 in WSW 13 mph 13 mph 88 % 0 in
17:32 51.8 °F 48.4 °F 30.1 in WSW 6 mph 13 mph 88 % 0 in
17:42 52 °F 48.6 °F 30.1 in WSW 5 mph 17 mph 88 % 0 in
17:52 52 °F 48.6 °F 30.1 in WSW 3 mph 13 mph 88 % 0 in
17:57 51.8 °F 48.7 °F 30.1 in WSW 3 mph 12 mph 89 % 0 in
18:02 52 °F 48.9 °F 30.1 in West 4 mph 12 mph 89 % 0 in
18:07 51.8 °F 48.7 °F 30.1 in WSW 3 mph 11 mph 89 % 0 in
18:12 52 °F 48.9 °F 30.1 in WSW 2 mph 11 mph 89 % 0 in
18:17 52 °F 48.9 °F 30.1 in WSW 8 mph 8 mph 89 % 0 in
18:22 52 °F 48.9 °F 30.1 in West 6 mph 9 mph 89 % 0 in
18:27 52 °F 48.9 °F 30.1 in WSW 2 mph 9 mph 89 % 0 in
18:32 52 °F 48.9 °F 30.1 in West 5 mph 11 mph 89 % 0 in
18:37 52 °F 48.9 °F 30.1 in WSW 9 mph 11 mph 89 % 0 in
18:42 52 °F 48.9 °F 30.1 in West 4 mph 11 mph 89 % 0 in
18:47 52 °F 48.9 °F 30.1 in WSW 8 mph 11 mph 89 % 0 in
18:52 52 °F 48.9 °F 30.1 in WSW 4 mph 11 mph 89 % 0 in
18:57 52 °F 48.9 °F 30.1 in WSW 9 mph 11 mph 89 % 0 in
19:02 52 °F 48.9 °F 30.1 in WSW 8 mph 11 mph 89 % 0 in
19:07 51.8 °F 48.7 °F 30.1 in West 6 mph 10 mph 89 % 0 in
19:12 51.8 °F 48.7 °F 30.1 in WSW 9 mph 10 mph 89 % 0 in
19:17 51.6 °F 48.7 °F 30.1 in West 9 mph 11 mph 90 % 0 in
19:22 51.6 °F 48.7 °F 30.1 in West 6 mph 11 mph 90 % 0 in
19:32 51.6 °F 48.7 °F 30.1 in WSW 7 mph 11 mph 90 % 0 in
19:37 51.6 °F 48.7 °F 30.1 in WSW 3 mph 10 mph 90 % 0 in
19:42 51.6 °F 48.7 °F 30.1 in SW 2 mph 10 mph 90 % 0 in
19:47 51.4 °F 48.6 °F 30.1 in WSW 5 mph 10 mph 90 % 0 in
19:52 51.4 °F 48.6 °F 30.1 in West 6 mph 10 mph 90 % 0 in
20:02 51.3 °F 48.7 °F 30.1 in West 5 mph 9 mph 91 % 0 in
20:07 51.3 °F 48.7 °F 30.1 in WNW 3 mph 9 mph 91 % 0 in
20:12 51.3 °F 48.7 °F 30.1 in WSW 3 mph 9 mph 91 % 0 in
20:17 51.3 °F 48.7 °F 30.1 in SSW 1 mph 6 mph 91 % 0 in
20:22 51.3 °F 48.7 °F 30.1 in SW 3 mph 6 mph 91 % 0 in
20:27 51.3 °F 48.7 °F 30.1 in WSW 4 mph 5 mph 91 % 0 in
20:32 51.1 °F 48.6 °F 30.1 in WSW 2 mph 5 mph 91 % 0 in
20:42 51.1 °F 48.9 °F 30.1 in WSW 2 mph 5 mph 92 % 0 in
20:47 51.1 °F 48.9 °F 30.1 in SW 2 mph 5 mph 92 % 0 in
20:52 51.1 °F 48.9 °F 30.1 in Calm   5 mph 92 % 0 in
20:57 51.1 °F 48.6 °F 30.1 in WSW 2 mph 5 mph 91 % 0 in
21:02 51.1 °F 48.6 °F 30.1 in WSW 3 mph 5 mph 91 % 0 in
21:07 51.1 °F 48.6 °F 30.1 in SW 1 mph 5 mph 91 % 0 in
21:17 51.1 °F 48.6 °F 30.1 in WSW 2 mph 4 mph 91 % 0 in
21:27 51.1 °F 48 °F 30.1 in WSW 2 mph 4 mph 89 % 0 in
21:37 51.3 °F 47.8 °F 30.1 in West 2 mph 6 mph 88 % 0 in
21:47 51.4 °F 47.7 °F 30.1 in West 1 mph 6 mph 87 % 0 in
21:52 51.4 °F 47.7 °F 30.1 in SW 2 mph 6 mph 87 % 0 in
21:57 51.4 °F 47.7 °F 30.1 in WSW 2 mph 5 mph 87 % 0 in
22:02 51.4 °F 47.7 °F 30.1 in West 2 mph 5 mph 87 % 0 in
22:07 51.4 °F 47.7 °F 30.1 in SW 2 mph 4 mph 87 % 0 in
22:12 51.4 °F 47.7 °F 30.1 in SW 1 mph 4 mph 87 % 0 in
22:17 51.3 °F 47.8 °F 30.1 in WSW 4 mph 4 mph 88 % 0 in
22:22 51.3 °F 47.8 °F 30.1 in WSW 3 mph 4 mph 88 % 0 in
22:27 51.3 °F 48.2 °F 30.1 in WSW 2 mph 6 mph 89 % 0 in
22:32 51.1 °F 48.2 °F 30.1 in SW 3 mph 6 mph 90 % 0 in
22:37 50.7 °F 48.2 °F 30.1 in SW 2 mph 6 mph 91 % 0 in
22:42 50.7 °F 48.2 °F 30.1 in WSW 2 mph 6 mph 91 % 0 in
22:47 50.9 °F 48.4 °F 30.1 in WSW 2 mph 5 mph 91 % 0 in
22:52 50.9 °F 48 °F 30.1 in WSW 2 mph 5 mph 90 % 0 in
22:57 50.7 °F 47.8 °F 30.1 in West 3 mph 6 mph 90 % 0 in
23:02 50.7 °F 47.8 °F 30.1 in SW 5 mph 6 mph 90 % 0 in
23:07 50.7 °F 47.8 °F 30.1 in WSW 5 mph 8 mph 90 % 0 in
23:12 50.9 °F 47.8 °F 30.1 in WSW 6 mph 8 mph 89 % 0 in
23:17 50.9 °F 47.8 °F 30.1 in WSW 3 mph 10 mph 89 % 0 in
23:22 50.9 °F 47.5 °F 30.1 in WSW 4 mph 10 mph 88 % 0 in
23:27 51.1 °F 47.3 °F 30.1 in West 1 mph 9 mph 87 % 0 in
23:32 51.1 °F 47.1 °F 30.1 in WNW 3 mph 9 mph 86 % 0 in
23:37 51.3 °F 46.9 °F 30.1 in SW 2 mph 7 mph 85 % 0 in
23:42 51.3 °F 46.9 °F 30.1 in WSW 3 mph 7 mph 85 % 0 in
23:47 51.3 °F 46.9 °F 30.1 in WSW 4 mph 8 mph 85 % 0 in
23:52 51.1 °F 46.8 °F 30.1 in SW 1 mph 8 mph 85 % 0 in
23:57 51.1 °F 46.4 °F 30.1 in WNW 2 mph 7 mph 84 % 0 in
Meteo18
Compliments of Weather Underground - 4 mb

Script developed by  Jim McMurry - jmcmurry@mwt.net Adapted for the template by  Wim van der Kuil - Leuven-Template.eu

You find our weather info also at:

European Weather Network

Weather Underground

Equipment we use:

Weather-station
Davis Vue

Weather-program
Meteobridge

Weather-server
Raspberry PI 2 B+

Provider
1 and 1

Davis Vue

Meteobridge

Raspberry PI 2 B+

1 and 1